Newark Liberty International Airport
KEWR : now visible

Airfield :











YOU CAN JOIN US ON...

 
LOGIN :

Register | Disclaimer

   EN    FR    IT 

 









Legend :    VFR   Marginal VFR   IFR   Intensive IFR   Very Intensive IFR
Visi :
Ceiling :
>= 8 km
>= 3000ft
5 to 8 km
1000 to 3000 ft
1500m to 5 km
500 to 1000 ft
800 to 1500m
200 to 500 ft
< 800m
< 200 ft
Symbols :   Thunderstorms  Fog  Heavy snow  Heavy precipitations  Wind > 20 kt






- Airport Elevation : 18 ft
- IATA code : EWR


KEWR - Newark Liberty International

CURRENT METAR :
  • 041551Z VRB05KT 10SM SCT030 27/19 A2993 RMK AO2 SLP136 T02670189

EXPIRED METARs :
  • 041524Z 01004KT 10SM SCT023 SCT027 26/19 A2993 RMK AO2 T02560194
  • 041451Z 03006KT 10SM FEW018 BKN023 25/19 A2993 RMK AO2 SLP136 T02500194 53004
  • 041351Z 36005KT 10SM FEW012 SCT015 OVC021 23/19 A2993 RMK AO2 SLP134 T02330189
  • 041334Z 01005KT 10SM SCT010 BKN015 OVC023 23/19 A2993 RMK AO2 T02330194

TAF KEWR
Valid from the 04 at 13:00 until the 05 at 18:00 UTC


041329Z 0413/0518 02006KT P6SM SCT009 OVC015
TEMPO 0413/0414 BKN009
FM041500 02006KT P6SM BKN025
TEMPO 0415/0416 BKN015
FM041700 03008KT P6SM SCT050
FM042000 15007KT P6SM SCT060
FM050300 17004KT P6SM FEW060
FM050600 21004KT P6SM FEW060
FM051400 26005KT P6SM FEW060
KZNY FIR / North America



MET'MAP, your aeronautical weather chart ! - Copyright ORBIFLY December 2007 - Disclaimer

ORBIFLY MET'MAP TEAM :

Programming & Development : Alexandra Zaïnal
Concept & original design : Baudouin d'Aumeries
Assistance for programming : Marc-Olivier Méhu
Technical & hardware support : Manuel Goepfert

Contact : metmap@orbifly.com




SOURCES & CREDITS :

   NOAA       Earth
Advisory